N1221Z KFTW-
Flight info
| Callsign | N1221Z |
|---|---|
| Flight time | N/A |
| Altitude | |
| Route | |
| Aircraft | TEX/L-DOV/C |
Departure
| Time | 2026-04-29 04:37 |
|---|---|
| Airport | Fort Worth Meacham International Airport (KFTW) |
Arrival
| Time | N/A |
|---|---|
| Airport | - |
| Time | Latitude | Longitude | Altitude | Speed | Heading |
|---|---|---|---|---|---|
| 2026-04-29 04:30 | 32.81927 | -97.35669 | 689 ft | 0 kts | 209° |
| 2026-04-29 04:31 | 32.81902 | -97.35700 | 690 ft | 11 kts | 229° |
| 2026-04-29 04:31 | 32.81859 | -97.35797 | 687 ft | 14 kts | 273° |
| 2026-04-29 04:32 | 32.81858 | -97.35900 | 685 ft | 12 kts | 247° |
| 2026-04-29 04:32 | 32.81798 | -97.35915 | 685 ft | 8 kts | 172° |
| 2026-04-29 04:32 | 32.81737 | -97.35904 | 684 ft | 11 kts | 171° |
| 2026-04-29 04:32 | 32.81649 | -97.35888 | 682 ft | 15 kts | 174° |
| 2026-04-29 04:33 | 32.81548 | -97.35872 | 679 ft | 14 kts | 171° |
| 2026-04-29 04:33 | 32.81432 | -97.35852 | 678 ft | 34 kts | 172° |
| 2026-04-29 04:33 | 32.81196 | -97.35813 | 677 ft | 30 kts | 173° |
| 2026-04-29 04:33 | 32.81034 | -97.35782 | 680 ft | 19 kts | 165° |
| 2026-04-29 04:34 | 32.80955 | -97.35771 | 680 ft | 8 kts | 243° |
| 2026-04-29 04:34 | 32.80959 | -97.35803 | 680 ft | 0 kts | 297° |
| 2026-04-29 04:36 | 32.80965 | -97.35815 | 680 ft | 11 kts | 304° |
| 2026-04-29 04:36 | 32.81037 | -97.35906 | 678 ft | 23 kts | 346° |
| 2026-04-29 04:37 | 32.81428 | -97.35979 | 678 ft | 90 kts | 352° |
| 2026-04-29 04:37 | 32.82183 | -97.36107 | 822 ft | 125 kts | 352° |
| 2026-04-29 04:37 | 32.83083 | -97.36268 | 1121 ft | 137 kts | 352° |
| 2026-04-29 04:37 | 32.84018 | -97.36445 | 1551 ft | 135 kts | 353° |
| 2026-04-29 04:38 | 32.84963 | -97.36388 | 1821 ft | 143 kts | 24° |
| 2026-04-29 04:38 | 32.85567 | -97.35447 | 1984 ft | 157 kts | 78° |
| 2026-04-29 04:38 | 32.85446 | -97.34152 | 2275 ft | 150 kts | 98° |
| 2026-04-29 04:38 | 32.85346 | -97.33295 | 3404 ft | 83 kts | 88° |
| 2026-04-29 04:39 | 32.85302 | -97.32557 | 3793 ft | 89 kts | 96° |
| 2026-04-29 04:39 | 32.85242 | -97.31754 | 4088 ft | 90 kts | 95° |
| 2026-04-29 04:39 | 32.85134 | -97.31049 | 4543 ft | 82 kts | 105° |
| 2026-04-29 04:39 | 32.85051 | -97.30438 | 4934 ft | 74 kts | 112° |
| 2026-04-29 04:40 | 32.84932 | -97.29927 | 5214 ft | 73 kts | 105° |
| 2026-04-29 04:40 | 32.84932 | -97.29238 | 5480 ft | 84 kts | 94° |
| 2026-04-29 04:40 | 32.84939 | -97.28415 | 5552 ft | 123 kts | 93° |
| 2026-04-29 04:40 | 32.84909 | -97.27440 | 5975 ft | 124 kts | 96° |
| 2026-04-29 04:41 | 32.84854 | -97.26310 | 6009 ft | 139 kts | 96° |
| 2026-04-29 04:41 | 32.84860 | -97.25126 | 6008 ft | 150 kts | 78° |
| 2026-04-29 04:41 | 32.85234 | -97.23919 | 5931 ft | 157 kts | 69° |
| 2026-04-29 04:41 | 32.85652 | -97.22731 | 5978 ft | 154 kts | 64° |
| 2026-04-29 04:42 | 32.86098 | -97.21689 | 6049 ft | 124 kts | 62° |
| 2026-04-29 04:42 | 32.86493 | -97.20796 | 5856 ft | 119 kts | 62° |
| 2026-04-29 04:42 | 32.86828 | -97.19999 | 5895 ft | 90 kts | 64° |
| 2026-04-29 04:42 | 32.87080 | -97.19398 | 5861 ft | 77 kts | 64° |
| 2026-04-29 04:43 | 32.87304 | -97.18846 | 5768 ft | 71 kts | 65° |
| 2026-04-29 04:43 | 32.87519 | -97.18303 | 5643 ft | 71 kts | 66° |
| 2026-04-29 04:43 | 32.87700 | -97.17786 | 5248 ft | 46 kts | 136° |
| 2026-04-29 04:43 | 32.87194 | -97.18503 | 4657 ft | 121 kts | 242° |
| 2026-04-29 04:44 | 32.86872 | -97.19221 | 5543 ft | 83 kts | 222° |
| 2026-04-29 04:44 | 32.86463 | -97.18953 | 5982 ft | 94 kts | 93° |
| 2026-04-29 04:44 | 32.86503 | -97.18118 | 6236 ft | 115 kts | 91° |
| 2026-04-29 04:44 | 32.86518 | -97.17008 | 6283 ft | 149 kts | 91° |
| 2026-04-29 04:45 | 32.86528 | -97.15699 | 6375 ft | 167 kts | 91° |
| 2026-04-29 04:45 | 32.86540 | -97.14340 | 6388 ft | 156 kts | 91° |
| 2026-04-29 04:45 | 32.86551 | -97.13027 | 6219 ft | 168 kts | 91° |
| 2026-04-29 04:45 | 32.86559 | -97.11644 | 6188 ft | 158 kts | 91° |
| 2026-04-29 04:46 | 32.86567 | -97.10317 | 6157 ft | 162 kts | 91° |
| 2026-04-29 04:46 | 32.86575 | -97.08984 | 6140 ft | 160 kts | 91° |
| 2026-04-29 04:46 | 32.86585 | -97.07658 | 6114 ft | 160 kts | 91° |
| 2026-04-29 04:46 | 32.86597 | -97.06331 | 6082 ft | 161 kts | 91° |
| 2026-04-29 04:47 | 32.86610 | -97.04996 | 6061 ft | 161 kts | 91° |
| 2026-04-29 04:47 | 32.86620 | -97.03669 | 6043 ft | 160 kts | 92° |
| 2026-04-29 04:47 | 32.86634 | -97.02357 | 6012 ft | 161 kts | 91° |
| 2026-04-29 04:47 | 32.86646 | -97.01027 | 5989 ft | 161 kts | 91° |
| 2026-04-29 04:48 | 32.86658 | -96.99699 | 5957 ft | 160 kts | 91° |
| 2026-04-29 04:48 | 32.86667 | -96.98376 | 5934 ft | 160 kts | 91° |
| 2026-04-29 04:48 | 32.86677 | -96.97051 | 5916 ft | 159 kts | 91° |
| 2026-04-29 04:48 | 32.86611 | -96.95741 | 5836 ft | 160 kts | 109° |
| 2026-04-29 04:49 | 32.86053 | -96.94607 | 5816 ft | 152 kts | 131° |
| 2026-04-29 04:49 | 32.85435 | -96.93658 | 5934 ft | 146 kts | 131° |
| 2026-04-29 04:49 | 32.84791 | -96.92706 | 5926 ft | 149 kts | 134° |
| 2026-04-29 04:49 | 32.84111 | -96.91772 | 5928 ft | 149 kts | 136° |
| 2026-04-29 04:50 | 32.83413 | -96.90863 | 5965 ft | 148 kts | 136° |
| 2026-04-29 04:50 | 32.82729 | -96.89968 | 6032 ft | 146 kts | 136° |
| 2026-04-29 04:50 | 32.82027 | -96.89060 | 5962 ft | 152 kts | 137° |
| 2026-04-29 04:50 | 32.81287 | -96.88132 | 5873 ft | 155 kts | 137° |
| 2026-04-29 04:51 | 32.80543 | -96.87199 | 5868 ft | 155 kts | 137° |
| 2026-04-29 04:51 | 32.79812 | -96.86278 | 5932 ft | 151 kts | 137° |
| 2026-04-29 04:51 | 32.79099 | -96.85381 | 5984 ft | 151 kts | 137° |
| 2026-04-29 04:51 | 32.78375 | -96.84474 | 6012 ft | 152 kts | 137° |
| 2026-04-29 04:52 | 32.77686 | -96.83520 | 6017 ft | 157 kts | 126° |
| 2026-04-29 04:52 | 32.77484 | -96.82223 | 6023 ft | 164 kts | 82° |
| 2026-04-29 04:52 | 32.77998 | -96.81000 | 5938 ft | 167 kts | 45° |
| 2026-04-29 04:52 | 32.78875 | -96.80141 | 5991 ft | 161 kts | 31° |
| 2026-04-29 04:53 | 32.79819 | -96.79436 | 6048 ft | 159 kts | 28° |
| 2026-04-29 04:53 | 32.80810 | -96.78874 | 6017 ft | 160 kts | 7° |
| 2026-04-29 04:53 | 32.81900 | -96.78967 | 5874 ft | 160 kts | 337° |
| 2026-04-29 04:53 | 32.82732 | -96.79573 | 6275 ft | 126 kts | 311° |
| 2026-04-29 04:54 | 32.83474 | -96.80167 | 6397 ft | 115 kts | 309° |
| 2026-04-29 04:54 | 32.84096 | -96.81062 | 5837 ft | 152 kts | 292° |
| 2026-04-29 04:54 | 32.84228 | -96.82195 | 6065 ft | 128 kts | 262° |
| 2026-04-29 04:54 | 32.84228 | -96.83323 | 5889 ft | 140 kts | 270° |
| 2026-04-29 04:55 | 32.84153 | -96.84472 | 5901 ft | 138 kts | 262° |
| 2026-04-29 04:55 | 32.84030 | -96.85601 | 5931 ft | 139 kts | 258° |
| 2026-04-29 04:55 | 32.83859 | -96.86741 | 5934 ft | 141 kts | 257° |
| 2026-04-29 04:55 | 32.83682 | -96.87886 | 5954 ft | 140 kts | 257° |
| 2026-04-29 04:56 | 32.83506 | -96.89025 | 5996 ft | 140 kts | 257° |
| 2026-04-29 04:56 | 32.83329 | -96.90156 | 6033 ft | 139 kts | 257° |
| 2026-04-29 04:56 | 32.83155 | -96.91278 | 6056 ft | 140 kts | 257° |
| 2026-04-29 04:56 | 32.82979 | -96.92421 | 6081 ft | 140 kts | 258° |
| 2026-04-29 04:57 | 32.82807 | -96.93553 | 6121 ft | 139 kts | 258° |
| 2026-04-29 04:57 | 32.82635 | -96.94687 | 6150 ft | 139 kts | 257° |
| 2026-04-29 04:57 | 32.82464 | -96.95824 | 6164 ft | 140 kts | 258° |
| 2026-04-29 04:57 | 32.82290 | -96.96967 | 6178 ft | 140 kts | 258° |
| 2026-04-29 04:58 | 32.82118 | -96.98104 | 6222 ft | 139 kts | 258° |
| 2026-04-29 04:58 | 32.81946 | -96.99236 | 6254 ft | 139 kts | 258° |
| 2026-04-29 04:58 | 32.81799 | -97.00386 | 6212 ft | 143 kts | 259° |
| 2026-04-29 04:58 | 32.81630 | -97.01557 | 6212 ft | 143 kts | 257° |
| 2026-04-29 04:59 | 32.81450 | -97.02701 | 6263 ft | 139 kts | 257° |
| 2026-04-29 04:59 | 32.81265 | -97.03858 | 6159 ft | 147 kts | 257° |
| 2026-04-29 04:59 | 32.81079 | -97.05045 | 6157 ft | 144 kts | 257° |
| 2026-04-29 04:59 | 32.80902 | -97.06176 | 6250 ft | 138 kts | 257° |
| 2026-04-29 05:00 | 32.80730 | -97.07298 | 6291 ft | 138 kts | 257° |
| 2026-04-29 05:00 | 32.80729 | -97.08430 | 6067 ft | 142 kts | 275° |
| 2026-04-29 05:00 | 32.80906 | -97.09558 | 5971 ft | 137 kts | 278° |
| 2026-04-29 05:00 | 32.81117 | -97.10694 | 5594 ft | 145 kts | 279° |
| 2026-04-29 05:01 | 32.81329 | -97.11821 | 5394 ft | 122 kts | 279° |
| 2026-04-29 05:01 | 32.81503 | -97.12667 | 5443 ft | 91 kts | 279° |
| 2026-04-29 05:01 | 32.81666 | -97.13210 | 5312 ft | 39 kts | 340° |
| 2026-04-29 05:01 | 32.82028 | -97.14037 | 3935 ft | 168 kts | 292° |
| 2026-04-29 05:02 | 32.82434 | -97.15261 | 3588 ft | 155 kts | 289° |
| 2026-04-29 05:02 | 32.82865 | -97.16289 | 3635 ft | 121 kts | 303° |
| 2026-04-29 05:02 | 32.83187 | -97.17023 | 4001 ft | 90 kts | 267° |
| 2026-04-29 05:02 | 32.83245 | -97.17714 | 4236 ft | 78 kts | 253° |
| 2026-04-29 05:03 | 32.83231 | -97.18742 | 3574 ft | 168 kts | 274° |
| 2026-04-29 05:03 | 32.83282 | -97.20244 | 3101 ft | 196 kts | 262° |
| 2026-04-29 05:03 | 32.83115 | -97.21843 | 3063 ft | 186 kts | 263° |
| 2026-04-29 05:03 | 32.83037 | -97.23366 | 2829 ft | 181 kts | 277° |
| 2026-04-29 05:04 | 32.82965 | -97.24885 | 2751 ft | 188 kts | 263° |
| 2026-04-29 05:04 | 32.82760 | -97.26376 | 2838 ft | 180 kts | 262° |
| 2026-04-29 05:04 | 32.82539 | -97.27841 | 3046 ft | 168 kts | 262° |
| 2026-04-29 05:04 | 32.82312 | -97.29293 | 2842 ft | 182 kts | 260° |
| 2026-04-29 05:05 | 32.81945 | -97.30835 | 2344 ft | 203 kts | 249° |
| 2026-04-29 05:05 | 32.81498 | -97.32254 | 2619 ft | 157 kts | 252° |
| 2026-04-29 05:05 | 32.81020 | -97.33325 | 2107 ft | 134 kts | 248° |
| 2026-04-29 05:05 | 32.80692 | -97.34256 | 1793 ft | 110 kts | 253° |
| 2026-04-29 05:06 | 32.80488 | -97.35106 | 1279 ft | 105 kts | 274° |
| 2026-04-29 05:06 | 32.80779 | -97.35780 | 820 ft | 88 kts | 329° |
| 2026-04-29 05:06 | 32.81266 | -97.35950 | 685 ft | 57 kts | 351° |
| 2026-04-29 05:06 | 32.81560 | -97.36003 | 679 ft | 30 kts | 336° |
| 2026-04-29 05:07 | 32.81678 | -97.36015 | 683 ft | 9 kts | 17° |
| 2026-04-29 05:07 | 32.81706 | -97.35994 | 684 ft | 0 kts | 41° |
| 2026-04-29 05:07 | 32.81727 | -97.35955 | 685 ft | 11 kts | 83° |
| 2026-04-29 05:07 | 32.81753 | -97.35906 | 685 ft | 5 kts | 13° |
| 2026-04-29 05:08 | 32.81836 | -97.35919 | 685 ft | 29 kts | 348° |
| 2026-04-29 05:08 | 32.81989 | -97.35943 | 686 ft | 16 kts | 352° |
| 2026-04-29 05:08 | 32.82111 | -97.35966 | 689 ft | 15 kts | 355° |